Frost, TX

2:58 AM CDT on July 05, 2015 (GMT -0500)
Blooming Grove | | Change Station
CLOSE
Current Station
Personal Weather Station
Location: Blooming Grove, TX
Elevation: 551 ft
Nearby Weather Stations
Active Advisory: Flood Warning

Elev 551 ft 32.09 °N, 96.69 °W | Updated 11 minutes ago

Clear
Clear
76.3 °F
Feels Like 77 °F
N
0.0
Wind Variable Wind from South

Today
High -- | Low -- °F
--% Chance of Precip.
Yesterday
High -- | Low -- °F
Precip. -- in
6:26 AM 8:36 PM
Waning Gibbous, 87% visible
Pressure 30.00 in
Visibility 10.0 miles
Clouds Clear
Heat Index 77 °F
Dew Point 72 °F
Humidity 86%
Rainfall 0.00 in
Snow Depth Not available.
UV 0 out of 12
Pollen 4.20 out of 12
Air Quality Not available.
Flu Activity Not available.
METAR KINJ 050735Z AUTO 16008KT 10SM CLR 25/22 A3000 RMK AO2 T02480216

More Conditions Fewer Conditions

Pressure 30.00 in
Visibility 10.0 miles
Clouds Clear
Heat Index 77 °F
Dew Point 72 °F
Humidity 86%
Rainfall 0.00 in
Snow Depth Not available.
UV 0 out of 12
Pollen 4.20 out of 12
Air Quality Not available.
Flu Activity Not available.
METAR KINJ 050735Z AUTO 16008KT 10SM CLR 25/22 A3000 RMK AO2 T02480216

More Conditions Fewer Conditions

10-Day Weather Forecast

×

Almanac

Astronomy

Jul. 05, 2015 Rise Set
Actual Time
Civil Twilight
Nautical Twilight
Astronomical Twilight
Moon
Length of Visible Light
Length of Day
Tomorrow will be .
, % of the Moon is Illuminated

Today's Extremes

State Highs State Lows

Community

WunderPhotos

Upload Photos

1,835,215 photos uploaded!

WunderBlogs® & News

Nearby

Air Quality

  Air Quality AQ Index Pollutant
Not available.

Snow Depth

Station Depth Elevation

Earthquake Activity

City Distance Mag. Time & Date
Minimum magnitude displayed is 2.5.

Coastal Water Temperatures

Place Temperature

Stations

Nearby Weather Stations

Station Location Temp. Windchill Dew Point Humidity Wind Precip. Elev Updated Type
                   
Flood Warning
Statement as of 8:58 PM CDT on July 04, 2015

The Flood Warning continues for
the Trinity River at Trinidad.
* At 0800 PM Saturday the stage was 35.12 feet.
* Flood stage is 33 feet.
* Minor flooding is occurring and minor flooding is forecast.
* Forecast... the river has crested and will continue to recede and
fall below flood stage by Sunday night.


Lat... Lon 3219 9626 3206 9613 3207 9600 3223 9613